Time;durP1;ratioP1;P1;durP2;ratioP2;P2;SDS_P1;SDS_P2;PMS_P1;PMS_P2;Temp;Humidity;BMP_temperature;BMP_pressure;BME280_temperature;BME280_humidity;BME280_pressure;Samples;Min_cycle;Max_cycle;Signal;HPM_P1;HPM_P2
2022/08/16 00:01:36;;;;;;;;;;;;;;;27.35;42.55;98948.22;4468556;32;19988;-84
2022/08/16 00:04:07;;;;;;;;;;;;;;;27.23;43.05;98943.72;4477303;31;19985;-84
2022/08/16 00:06:36;;;;;;;;;;;;;;;27.39;42.86;98953.31;4475970;31;20037;-84
2022/08/16 00:09:05;;;;;;;;;;;;;;;27.25;43.16;98957.75;4476654;31;20017;-83
2022/08/16 00:11:32;;;;;;;;;;;;;;;27.35;42.50;98953.53;4476646;31;19985;-84
2022/08/16 00:13:59;;;;;;;;;;;;;;;27.18;42.69;98956.44;4488305;31;20409;-83
2022/08/16 00:16:27;;;;;;;;;;;;;;;27.14;43.08;98954.94;4472178;31;20343;-83
2022/08/16 00:19:17;;;;;;;;;;;;;;;26.96;44.12;98961.44;4460196;32;20314;-83
2022/08/16 00:21:45;;;;;;;;;;;;;;;26.81;44.53;98964.16;4466989;31;19973;-83
2022/08/16 00:24:19;;;;;;;;;;;;;;;26.87;44.07;98961.09;4469951;32;19985;-83
2022/08/16 00:26:58;;;;;;;;;;;;;;;26.75;44.75;98959.25;4475722;32;20099;-82
2022/08/16 00:29:26;;;;;;;;;;;;;;;26.76;44.50;98960.94;4475745;32;19973;-82
2022/08/16 00:31:56;;;;;;;;;;;;;;;26.57;44.96;98965.72;4469732;31;20710;-83
2022/08/16 00:34:31;;;;;;;;;;;;;;;26.81;43.94;98965.97;4475295;32;20011;-83
2022/08/16 00:37:19;;;;;;;;;;;;;;;26.67;44.22;98961.53;4451668;32;19984;-82
2022/08/16 00:39:51;;;;;;;;;;;;;;;26.79;44.28;98960.72;4463896;32;19973;-82
2022/08/16 00:42:25;;;;;;;;;;;;;;;26.52;44.93;98959.88;4461133;32;20376;-84
2022/08/16 00:45:02;;;;;;;;;;;;;;;26.54;44.80;98965.91;4461364;32;19999;-83
2022/08/16 00:47:36;;;;;;;;;;;;;;;26.66;43.69;98965.97;4468132;32;20387;-84
2022/08/16 00:50:03;;;;;;;;;;;;;;;26.66;43.94;98970.44;4459411;32;20051;-83
2022/08/16 00:52:37;;;;;;;;;;;;;;;26.68;43.96;98963.25;4461749;32;20002;-83
2022/08/16 00:55:15;;;;;;;;;;;;;;;26.49;44.55;98962.72;4467309;32;20004;-84
2022/08/16 00:57:44;;;;;;;;;;;;;;;26.27;45.31;98963.19;4461864;32;20004;-83
2022/08/16 01:00:27;;;;;;;;;;;;;;;26.28;45.12;98976.34;4461189;32;19999;-83
2022/08/16 01:02:56;;;;;;;;;;;;;;;26.27;45.20;98973.78;4478677;31;19977;-83
2022/08/16 01:05:24;;;;;;;;;;;;;;;26.28;44.94;98979.00;4469354;32;20033;-83
2022/08/16 01:07:51;;;;;;;;;;;;;;;26.23;45.21;98983.75;4475293;32;19997;-83
2022/08/16 01:10:20;;;;;;;;;;;;;;;26.20;45.35;98984.78;4468249;32;19973;-83
2022/08/16 01:12:59;;;;;;;;;;;;;;;26.15;45.09;98978.06;4462597;32;19997;-83
2022/08/16 01:15:26;;;;;;;;;;;;;;;26.21;44.93;98981.19;4472630;32;19988;-82
2022/08/16 01:17:56;;;;;;;;;;;;;;;25.93;45.50;98986.47;4477079;32;19984;-81
2022/08/16 01:20:23;;;;;;;;;;;;;;;26.13;45.02;98977.28;4471470;31;19977;-82
2022/08/16 01:23:09;;;;;;;;;;;;;;;26.10;45.04;98977.47;4463606;32;19992;-82
2022/08/16 01:25:37;;;;;;;;;;;;;;;25.89;45.76;98980.50;4461411;32;19988;-81
2022/08/16 01:28:07;;;;;;;;;;;;;;;25.97;45.11;98986.19;4462590;32;20072;-82
2022/08/16 01:30:36;;;;;;;;;;;;;;;25.93;45.20;98982.00;4461570;32;20301;-82
2022/08/16 01:33:16;;;;;;;;;;;;;;;25.81;45.64;98977.44;4462555;32;20442;-82
2022/08/16 01:35:55;;;;;;;;;;;;;;;25.78;45.87;98977.59;4461560;32;20007;-81
2022/08/16 01:38:30;;;;;;;;;;;;;;;25.72;45.90;98978.84;4460863;32;19973;-82
2022/08/16 01:41:01;;;;;;;;;;;;;;;25.67;46.17;98980.06;4462639;32;19969;-82
2022/08/16 01:43:30;;;;;;;;;;;;;;;25.68;45.96;98976.44;4470893;32;20107;-82
2022/08/16 01:45:58;;;;;;;;;;;;;;;25.63;46.13;98978.53;4465922;32;20476;-83
2022/08/16 01:48:45;;;;;;;;;;;;;;;25.73;45.97;98979.69;4462846;31;19984;-83
2022/08/16 01:51:12;;;;;;;;;;;;;;;25.45;46.46;98976.03;4466257;32;19993;-84
2022/08/16 01:53:43;;;;;;;;;;;;;;;25.58;46.13;98975.31;4465778;31;20012;-82
2022/08/16 01:56:22;;;;;;;;;;;;;;;25.54;46.17;98979.09;4462520;32;20003;-83
2022/08/16 01:58:53;;;;;;;;;;;;;;;25.57;46.25;98978.91;4461299;32;20012;-83
2022/08/16 02:01:21;;;;;;;;;;;;;;;25.49;46.08;98974.91;4461172;32;19994;-83
2022/08/16 02:03:49;;;;;;;;;;;;;;;25.44;45.88;98974.31;4462311;32;20322;-83
2022/08/16 02:06:18;;;;;;;;;;;;;;;25.49;46.22;98982.88;4462313;32;20319;-84
2022/08/16 02:09:01;;;;;;;;;;;;;;;25.41;46.52;98985.09;4462096;32;19985;-84
2022/08/16 02:11:30;;;;;;;;;;;;;;;25.37;46.68;98983.59;4461984;32;19973;-84
2022/08/16 02:14:18;;;;;;;;;;;;;;;25.41;46.58;98979.81;4461188;32;20337;-84
2022/08/16 02:16:48;;;;;;;;;;;;;;;25.31;46.52;98973.34;4462802;32;20012;-84
2022/08/16 02:19:17;;;;;;;;;;;;;;;25.28;46.48;98978.81;4462439;32;20334;-84
2022/08/16 02:21:51;;;;;;;;;;;;;;;25.34;45.91;98970.50;4466612;32;19996;-84
2022/08/16 02:24:35;;;;;;;;;;;;;;;25.42;45.59;98970.91;4461086;32;19996;-82
2022/08/16 02:27:11;;;;;;;;;;;;;;;25.37;46.02;98972.97;4462746;32;19992;-83
2022/08/16 02:29:39;;;;;;;;;;;;;;;25.24;46.51;98972.00;4460627;32;19995;-82
2022/08/16 02:32:12;;;;;;;;;;;;;;;25.20;46.81;98970.44;4466916;32;20300;-82
2022/08/16 02:34:59;;;;;;;;;;;;;;;25.26;46.70;98972.75;4455519;31;19989;-83
2022/08/16 02:37:27;;;;;;;;;;;;;;;25.04;47.05;98971.28;4452769;32;19990;-83
2022/08/16 02:40:18;;;;;;;;;;;;;;;25.02;46.99;98970.53;4465914;31;19999;-83
2022/08/16 02:42:47;;;;;;;;;;;;;;;25.04;46.67;98971.28;4466433;32;20605;-83
2022/08/16 02:45:17;;;;;;;;;;;;;;;24.94;47.33;98972.75;4471458;32;19999;-83
2022/08/16 02:47:44;;;;;;;;;;;;;;;25.04;47.05;98966.00;4473157;31;20068;-83
2022/08/16 02:50:26;;;;;;;;;;;;;;;25.02;46.97;98977.63;4462408;32;20032;-84
2022/08/16 02:53:13;;;;;;;;;;;;;;;24.94;47.25;98975.41;4461676;32;19984;-84
2022/08/16 02:55:44;;;;;;;;;;;;;;;24.80;47.53;98967.41;4486786;31;19992;-83
2022/08/16 02:58:17;;;;;;;;;;;;;;;24.87;47.30;98963.47;4484340;31;19996;-84
2022/08/16 03:00:44;;;;;;;;;;;;;;;24.96;47.03;98972.69;4478670;31;20026;-84
2022/08/16 03:03:16;;;;;;;;;;;;;;;25.06;46.73;98971.22;4476392;32;20026;-84
2022/08/16 03:05:46;;;;;;;;;;;;;;;24.61;48.05;98972.03;4476221;32;19992;-83
2022/08/16 03:08:18;;;;;;;;;;;;;;;24.69;47.78;98980.37;4480575;31;20006;-85
2022/08/16 03:11:05;;;;;;;;;;;;;;;24.76;47.26;98976.44;4477615;31;20137;-84
2022/08/16 03:13:44;;;;;;;;;;;;;;;24.66;47.55;98975.25;4478311;31;20382;-84
2022/08/16 03:16:13;;;;;;;;;;;;;;;24.72;47.31;98974.91;4477467;31;19996;-84
2022/08/16 03:19:00;;;;;;;;;;;;;;;24.70;47.64;98979.47;4483385;31;20306;-84
2022/08/16 03:21:28;;;;;;;;;;;;;;;24.45;48.55;98972.87;4489056;31;20294;-84
2022/08/16 03:24:05;;;;;;;;;;;;;;;24.68;48.01;98984.81;4491520;31;19976;-83
2022/08/16 03:26:52;;;;;;;;;;;;;;;24.54;48.48;98985.59;4487314;31;20006;-83
2022/08/16 03:29:26;;;;;;;;;;;;;;;24.39;48.77;98989.03;4481187;31;19999;-83
2022/08/16 03:31:58;;;;;;;;;;;;;;;24.55;48.07;98992.59;4486659;31;20316;-83
2022/08/16 03:34:27;;;;;;;;;;;;;;;24.73;47.42;99001.31;4477324;32;19980;-83
2022/08/16 03:36:55;;;;;;;;;;;;;;;24.68;47.52;98999.84;4477985;31;19977;-83
2022/08/16 03:39:22;;;;;;;;;;;;;;;24.76;47.14;99002.91;4477500;31;20002;-83
2022/08/16 03:41:50;;;;;;;;;;;;;;;24.72;47.34;99011.97;4477556;31;20043;-84
2022/08/16 03:44:26;;;;;;;;;;;;;;;24.68;47.64;99015.72;4167837;31;10000756;-84
2022/08/16 03:47:14;;;;;;;;;;;;;;;24.69;47.82;99013.00;4484822;31;20310;-83
2022/08/16 03:49:46;;;;;;;;;;;;;;;24.64;47.87;99011.56;4477775;31;20328;-83
2022/08/16 03:52:21;;;;;;;;;;;;;;;24.66;48.04;99007.84;4478298;31;20008;-83
2022/08/16 03:54:50;;;;;;;;;;;;;;;24.71;48.32;99015.56;4473061;32;19981;-84
2022/08/16 03:57:25;;;;;;;;;;;;;;;24.70;48.33;99014.72;4475597;32;19989;-85
2022/08/16 04:00:11;;;;;;;;;;;;;;;24.72;47.82;99019.91;4479434;31;19988;-84
2022/08/16 04:03:05;;;;;;;;;;;;;;;24.66;48.01;99017.59;4475515;31;20006;-85
2022/08/16 04:05:35;;;;;;;;;;;;;;;24.72;48.51;99025.19;4492309;31;19984;-84
2022/08/16 04:08:04;;;;;;;;;;;;;;;24.77;48.02;99025.81;4491744;31;20020;-84
2022/08/16 04:10:50;;;;;;;;;;;;;;;24.82;47.54;99023.75;4492380;31;20382;-85
2022/08/16 04:13:18;;;;;;;;;;;;;;;24.86;47.50;99022.66;4493504;31;20027;-83
2022/08/16 04:16:05;;;;;;;;;;;;;;;24.77;48.28;99025.81;4483271;31;19984;-83
2022/08/16 04:18:35;;;;;;;;;;;;;;;24.63;49.40;99017.75;4492287;31;20277;-82
2022/08/16 04:21:03;;;;;;;;;;;;;;;24.83;48.97;99025.47;4491376;31;20006;-83
2022/08/16 04:23:30;;;;;;;;;;;;;;;24.72;49.05;99028.69;4485810;31;20317;-83
2022/08/16 04:25:58;;;;;;;;;;;;;;;24.91;48.14;99023.25;4489941;31;20019;-83
2022/08/16 04:28:29;;;;;;;;;;;;;;;24.89;48.88;99030.44;4492753;31;19989;-83
2022/08/16 04:31:16;;;;;;;;;;;;;;;24.96;48.23;99026.50;4487540;31;20006;-84
2022/08/16 04:33:43;;;;;;;;;;;;;;;24.88;48.88;99028.72;4480127;31;19995;-82
2022/08/16 04:36:17;;;;;;;;;;;;;;;25.04;48.66;99032.19;4477123;31;20376;-85
2022/08/16 04:38:46;;;;;;;;;;;;;;;24.95;48.68;99022.16;4477312;31;20294;-82
2022/08/16 04:41:18;;;;;;;;;;;;;;;25.22;48.39;99032.16;4484088;31;20313;-84
2022/08/16 04:43:59;;;;;;;;;;;;;;;25.29;47.75;99028.19;4477184;32;20065;-85
2022/08/16 04:46:26;;;;;;;;;;;;;;;25.13;48.02;99033.50;4482532;31;19984;-82
2022/08/16 04:49:13;;;;;;;;;;;;;;;24.99;48.31;99031.63;4483715;31;20043;-80
2022/08/16 04:51:40;;;;;;;;;;;;;;;25.26;47.72;99038.97;4477045;31;20000;-82
2022/08/16 04:54:08;;;;;;;;;;;;;;;25.49;47.18;99041.16;4484862;31;20036;-82
2022/08/16 04:56:54;;;;;;;;;;;;;;;25.44;46.42;99027.31;4475158;32;19981;-83
2022/08/16 04:59:23;;;;;;;;;;;;;;;25.51;46.03;99033.13;4476934;31;20111;-83
2022/08/16 05:01:55;;;;;;;;;;;;;;;25.45;45.76;99029.00;4482354;31;19999;-83
2022/08/16 05:04:25;;;;;;;;;;;;;;;25.36;47.86;99034.00;4478865;31;20343;-84
2022/08/16 05:06:56;;;;;;;;;;;;;;;25.47;46.67;99032.44;4484390;31;19980;-85
2022/08/16 05:09:23;;;;;;;;;;;;;;;25.57;46.46;99037.22;4476451;32;20022;-84
2022/08/16 05:11:51;;;;;;;;;;;;;;;25.69;46.95;99041.81;4476961;31;20000;-82
2022/08/16 05:14:24;;;;;;;;;;;;;;;25.74;46.18;99047.66;4478353;31;19996;-85
2022/08/16 05:17:13;;;;;;;;;;;;;;;25.69;45.68;99052.41;4486771;31;20278;-87
2022/08/16 05:19:40;;;;;;;;;;;;;;;25.70;46.75;99064.69;4492222;31;20010;-86
2022/08/16 05:22:13;;;;;;;;;;;;;;;25.71;47.45;99071.69;4492224;31;20000;-89
2022/08/16 05:24:43;;;;;;;;;;;;;;;25.84;46.84;99072.72;4486265;31;19988;-83
2022/08/16 05:27:10;;;;;;;;;;;;;;;25.94;46.78;99073.91;4480561;31;19976;-81
2022/08/16 05:29:38;;;;;;;;;;;;;;;25.93;46.10;99072.19;4477419;31;20025;-81
2022/08/16 05:32:25;;;;;;;;;;;;;;;26.11;45.07;99074.69;4483089;31;20012;-85
2022/08/16 05:35:00;;;;;;;;;;;;;;;26.03;46.10;99074.28;4476098;31;20044;-87
2022/08/16 05:37:28;;;;;;;;;;;;;;;26.04;46.84;99062.72;4475004;32;19980;-83
2022/08/16 05:40:06;;;;;;;;;;;;;;;25.93;47.29;99072.19;4481129;31;19995;-85
2022/08/16 05:42:34;;;;;;;;;;;;;;;26.20;46.54;99079.44;4475768;31;20016;-85
2022/08/16 05:45:02;;;;;;;;;;;;;;;26.29;45.72;99073.59;4476320;31;19988;-86
2022/08/16 05:47:33;;;;;;;;;;;;;;;26.19;46.12;99069.75;4471927;31;20475;-83
2022/08/16 05:50:09;;;;;;;;;;;;;;;26.33;45.54;99069.78;4477296;32;20039;-88
2022/08/16 05:52:45;;;;;;;;;;;;;;;26.41;44.85;99070.16;4476488;31;20000;-81
2022/08/16 05:55:12;;;;;;;;;;;;;;;26.55;44.07;99063.19;4468934;32;20015;-82
2022/08/16 05:57:39;;;;;;;;;;;;;;;26.50;44.61;99073.25;4471687;32;20003;-84
2022/08/16 06:00:10;;;;;;;;;;;;;;;26.42;45.36;99063.06;4477806;32;20272;-82
2022/08/16 06:02:38;;;;;;;;;;;;;;;26.49;44.68;99064.44;4477199;31;20039;-80
2022/08/16 06:05:07;;;;;;;;;;;;;;;26.57;44.51;99066.59;4475160;32;19992;-85
2022/08/16 06:07:37;;;;;;;;;;;;;;;26.57;45.06;99066.59;4463481;32;20300;-80
2022/08/16 06:10:05;;;;;;;;;;;;;;;26.51;46.45;99069.63;4452294;31;20722;-87
2022/08/16 06:12:32;;;;;;;;;;;;;;;26.16;48.97;99072.59;4476251;31;20894;-85
2022/08/16 06:15:03;;;;;;;;;;;;;;;26.42;47.09;99069.22;4476475;32;20051;-87
2022/08/16 06:17:36;;;;;;;;;;;;;;;26.39;46.73;99069.41;4472847;32;19988;-79
2022/08/16 06:20:21;;;;;;;;;;;;;;;26.25;48.02;99058.78;4454705;32;19995;-82
2022/08/16 06:23:04;;;;;;;;;;;;;;;26.24;48.72;99054.44;4474899;32;19985;-82
2022/08/16 06:25:45;;;;;;;;;;;;;;;26.44;48.62;99056.69;4471820;32;19989;-87
2022/08/16 06:28:19;;;;;;;;;;;;;;;26.35;49.08;99057.25;4462361;32;20020;-86
2022/08/16 06:31:02;;;;;;;;;;;;;;;26.40;50.21;99052.53;4463038;32;19969;-88
2022/08/16 06:33:30;;;;;;;;;;;;;;;26.32;51.74;99052.12;4467614;32;20007;-85
2022/08/16 06:36:08;;;;;;;;;;;;;;;26.39;49.76;99050.00;4462401;32;19997;-83
2022/08/16 06:38:39;;;;;;;;;;;;;;;26.66;47.13;99039.47;4462407;32;19989;-88
2022/08/16 06:41:23;;;;;;;;;;;;;;;26.64;46.05;99036.06;4461514;32;19981;-80
2022/08/16 06:43:54;;;;;;;;;;;;;;;26.33;46.71;99027.34;4476315;32;20361;-88
2022/08/16 06:46:22;;;;;;;;;;;;;;;26.60;42.52;99008.00;4471103;31;20877;-80
2022/08/16 06:49:02;;;;;;;;;;;;;;;26.73;41.33;99027.50;4462936;32;19977;-85
2022/08/16 06:51:32;;;;;;;;;;;;;;;26.83;42.27;99028.62;4467827;32;20258;-85
2022/08/16 06:54:15;;;;;;;;;;;;;;;26.79;43.40;99024.47;4477412;31;19984;-86
2022/08/16 06:56:42;;;;;;;;;;;;;;;26.66;45.61;99019.09;4477835;32;19996;-83
2022/08/16 06:59:11;;;;;;;;;;;;;;;26.70;44.94;99025.06;4475142;32;20063;-83
2022/08/16 07:01:41;;;;;;;;;;;;;;;26.84;46.31;99021.53;4470571;32;19981;-81
2022/08/16 07:04:19;;;;;;;;;;;;;;;27.01;45.78;99023.09;4469583;31;19993;-81
2022/08/16 07:07:00;;;;;;;;;;;;;;;26.96;46.12;99026.03;4469157;32;19988;-83
2022/08/16 07:09:29;;;;;;;;;;;;;;;27.18;46.85;99048.59;4475169;32;20088;-85
2022/08/16 07:11:56;;;;;;;;;;;;;;;27.00;47.57;99042.66;4475998;32;20051;-83
2022/08/16 07:14:32;;;;;;;;;;;;;;;27.45;46.65;99053.91;4480493;31;20045;-88
2022/08/16 07:16:59;;;;;;;;;;;;;;;26.82;49.53;99065.91;4484085;31;20375;-81
2022/08/16 07:19:26;;;;;;;;;;;;;;;26.95;49.44;99082.78;4468108;31;20045;-84
2022/08/16 07:22:15;;;;;;;;;;;;;;;26.95;50.33;99084.59;4465425;32;20510;-80
2022/08/16 07:25:07;;;;;;;;;;;;;;;26.96;50.88;99088.94;4456408;32;20049;-85
2022/08/16 07:27:36;;;;;;;;;;;;;;;26.54;53.65;99094.19;4464897;32;20289;-79
2022/08/16 07:30:06;;;;;;;;;;;;;;;26.73;53.54;99093.91;4468553;32;20000;-81
2022/08/16 07:32:54;;;;;;;;;;;;;;;26.66;54.04;99092.56;4472976;32;19984;-79
2022/08/16 07:35:21;;;;;;;;;;;;;;;26.75;53.89;99094.66;4472085;31;21149;-79
2022/08/16 07:37:48;;;;;;;;;;;;;;;26.97;53.55;99101.28;4472673;32;20004;-80
2022/08/16 07:40:17;;;;;;;;;;;;;;;26.99;52.38;99091.41;4472925;32;20003;-82
2022/08/16 07:42:51;;;;;;;;;;;;;;;27.05;52.47;99104.28;4470452;32;19981;-79
2022/08/16 07:45:19;;;;;;;;;;;;;;;27.06;52.55;99119.31;4473210;31;19992;-82
2022/08/16 07:47:47;;;;;;;;;;;;;;;26.97;52.47;99106.59;4472629;32;20004;-80
2022/08/16 07:50:17;;;;;;;;;;;;;;;26.92;53.13;99106.88;4475177;31;19976;-81
2022/08/16 07:53:08;;;;;;;;;;;;;;;27.02;52.56;99093.84;4462608;32;19996;-85
2022/08/16 07:55:37;;;;;;;;;;;;;;;27.14;52.10;99103.75;4474117;31;20562;-85
2022/08/16 07:58:16;;;;;;;;;;;;;;;27.07;52.41;99102.41;4466983;32;20398;-87
2022/08/16 08:00:44;;;;;;;;;;;;;;;27.18;51.93;99099.94;4475289;32;19998;-86
2022/08/16 08:03:12;;;;;;;;;;;;;;;27.12;52.70;99097.62;4467395;32;19984;-85
2022/08/16 08:05:41;;;;;;;;;;;;;;;27.10;53.35;99099.56;4472988;32;20352;-83
2022/08/16 08:08:09;;;;;;;;;;;;;;;26.89;52.21;99105.25;4474065;32;19988;-85
2022/08/16 08:10:56;;;;;;;;;;;;;;;26.83;52.50;99105.62;4469183;32;20021;-88
2022/08/16 08:13:34;;;;;;;;;;;;;;;27.09;52.14;99108.44;4467416;32;19991;-85
2022/08/16 08:16:09;;;;;;;;;;;;;;;27.24;52.38;99104.84;4461436;32;20087;-85
2022/08/16 08:18:46;;;;;;;;;;;;;;;27.06;51.36;99106.88;4477258;32;20000;-85
2022/08/16 08:21:23;;;;;;;;;;;;;;;27.49;50.41;99103.28;4472161;32;19985;-88
2022/08/16 08:23:55;;;;;;;;;;;;;;;27.52;50.43;99119.03;4467020;32;19993;-89
2022/08/16 08:26:24;;;;;;;;;;;;;;;27.30;49.99;99120.41;4468105;32;20044;-90
2022/08/16 08:28:51;;;;;;;;;;;;;;;27.35;50.50;99123.63;4463492;32;19999;-82
2022/08/16 08:31:26;;;;;;;;;;;;;;;27.51;51.50;99119.97;4468579;32;20040;-82
2022/08/16 08:33:55;;;;;;;;;;;;;;;27.15;49.32;99121.38;4460905;32;20003;-83
2022/08/16 08:36:24;;;;;;;;;;;;;;;27.47;47.95;99126.44;4461152;32;20088;-85
2022/08/16 08:39:02;;;;;;;;;;;;;;;27.70;47.55;99122.28;4461743;32;20046;-82
2022/08/16 08:41:40;;;;;;;;;;;;;;;28.25;45.66;99122.13;4461234;32;19997;-83
2022/08/16 08:44:11;;;;;;;;;;;;;;;28.32;47.06;99116.37;4468136;32;19980;-85
2022/08/16 08:47:00;;;;;;;;;;;;;;;28.39;45.97;99120.31;4466418;32;19984;-81
2022/08/16 08:49:30;;;;;;;;;;;;;;;28.93;42.73;99120.09;4470083;32;20025;-83
2022/08/16 08:52:16;;;;;;;;;;;;;;;29.30;41.08;99101.50;4461151;32;20003;-86
2022/08/16 08:55:05;;;;;;;;;;;;;;;29.81;40.30;99112.81;4461203;32;20020;-82
2022/08/16 08:57:38;;;;;;;;;;;;;;;30.41;40.13;99100.25;4459216;32;20001;-82
2022/08/16 09:00:09;;;;;;;;;;;;;;;30.64;38.97;99100.28;4459688;32;19988;-83
2022/08/16 09:02:43;;;;;;;;;;;;;;;31.17;38.21;99097.81;4459794;32;20490;-85
2022/08/16 09:05:19;;;;;;;;;;;;;;;31.02;37.67;99099.94;4459570;32;19984;-82
2022/08/16 09:07:49;;;;;;;;;;;;;;;31.46;37.24;99099.03;4460432;32;20490;-81
2022/08/16 09:10:31;;;;;;;;;;;;;;;31.72;38.97;99104.03;4460886;32;19984;-82
2022/08/16 09:13:00;;;;;;;;;;;;;;;31.97;36.45;99097.47;4459579;32;20011;-83
2022/08/16 09:15:32;;;;;;;;;;;;;;;32.01;37.72;99100.78;4447075;32;19973;-83
2022/08/16 09:18:01;;;;;;;;;;;;;;;32.34;38.80;99099.72;4459197;32;19977;-82
2022/08/16 09:20:51;;;;;;;;;;;;;;;32.71;36.91;99085.84;4459968;32;19991;-84
2022/08/16 09:23:25;;;;;;;;;;;;;;;33.00;35.39;99096.69;4461208;32;19998;-85
2022/08/16 09:25:53;;;;;;;;;;;;;;;33.62;28.42;99087.50;4468739;32;19981;-83
2022/08/16 09:28:20;;;;;;;;;;;;;;;33.46;30.87;99082.62;4464725;32;19995;-86
2022/08/16 09:31:08;;;;;;;;;;;;;;;33.43;32.68;99076.72;4462852;32;20033;-81
2022/08/16 09:33:36;;;;;;;;;;;;;;;33.88;29.44;99076.19;4469569;32;20002;-82
2022/08/16 09:36:06;;;;;;;;;;;;;;;34.32;26.54;99063.97;4478307;31;20028;-83
2022/08/16 09:38:53;;;;;;;;;;;;;;;34.29;27.09;99074.16;4474782;32;20037;-82
2022/08/16 09:41:26;;;;;;;;;;;;;;;34.24;28.86;99072.75;4475293;32;20334;-82
2022/08/16 09:43:54;;;;;;;;;;;;;;;34.46;27.78;99062.63;4469284;32;19984;-82
2022/08/16 09:46:27;;;;;;;;;;;;;;;34.44;27.73;99072.72;4470207;32;20026;-82
2022/08/16 09:49:14;;;;;;;;;;;;;;;34.37;28.93;99071.59;4463151;32;19972;-84
2022/08/16 09:51:41;;;;;;;;;;;;;;;34.82;26.48;99073.56;4468814;32;19993;-82
2022/08/16 09:54:13;;;;;;;;;;;;;;;35.12;26.62;99067.06;4462130;32;19999;-83
2022/08/16 09:56:43;;;;;;;;;;;;;;;35.30;25.61;99064.41;4463784;32;20022;-83
2022/08/16 09:59:19;;;;;;;;;;;;;;;35.41;25.29;99066.84;4466529;32;19976;-82
2022/08/16 10:01:49;;;;;;;;;;;;;;;35.63;25.56;99062.87;4462299;32;19981;-81
2022/08/16 10:04:17;;;;;;;;;;;;;;;35.70;26.23;99055.03;4461997;32;19981;-82
2022/08/16 10:07:00;;;;;;;;;;;;;;;35.73;26.71;99060.12;4469663;31;19988;-82
2022/08/16 10:09:32;;;;;;;;;;;;;;;36.09;24.75;99048.31;4460692;32;19977;-82
2022/08/16 10:15:12;;;;;;;;;;;;;;;35.91;24.59;99052.00;4468514;32;20017;-84
2022/08/16 10:17:44;;;;;;;;;;;;;;;36.18;24.75;99048.34;4448148;32;19988;-83
2022/08/16 10:20:26;;;;;;;;;;;;;;;36.29;22.99;99045.41;4468734;32;19992;-82
2022/08/16 10:22:53;;;;;;;;;;;;;;;36.09;24.57;99051.00;4463229;31;19989;-87
2022/08/16 10:25:31;;;;;;;;;;;;;;;36.07;23.19;99042.22;4467910;32;19981;-82
2022/08/16 10:28:18;;;;;;;;;;;;;;;36.59;23.60;99046.75;4477559;31;19984;-90
2022/08/16 10:30:56;;;;;;;;;;;;;;;36.73;22.23;99048.03;4477037;31;20015;-82
2022/08/16 10:33:26;;;;;;;;;;;;;;;36.92;22.84;99050.44;4476792;31;20041;-83
2022/08/16 10:35:55;;;;;;;;;;;;;;;36.77;24.35;99043.97;4471994;31;20306;-85
2022/08/16 10:38:29;;;;;;;;;;;;;;;36.06;24.20;99047.78;4460416;32;20036;-81
2022/08/16 10:40:59;;;;;;;;;;;;;;;36.77;22.61;99043.97;4462735;32;19981;-82
2022/08/16 10:43:26;;;;;;;;;;;;;;;37.12;22.30;99042.09;4474001;32;19991;-81
2022/08/16 10:45:57;;;;;;;;;;;;;;;37.03;22.30;99053.88;4466758;32;19989;-82
2022/08/16 10:48:27;;;;;;;;;;;;;;;37.19;21.38;99043.13;4470326;32;19980;-82
2022/08/16 10:50:57;;;;;;;;;;;;;;;37.12;21.98;99042.09;4461763;32;20011;-84
2022/08/16 10:53:28;;;;;;;;;;;;;;;36.83;22.54;99043.34;4460418;32;19997;-82
2022/08/16 10:56:00;;;;;;;;;;;;;;;37.09;21.92;99045.12;4460467;32;19989;-82
2022/08/16 10:58:29;;;;;;;;;;;;;;;37.34;20.71;99041.47;4467667;32;19972;-83
2022/08/16 11:01:05;;;;;;;;;;;;;;;36.49;23.39;99037.91;4460489;32;20514;-84
2022/08/16 11:03:52;;;;;;;;;;;;;;;37.12;21.89;99036.69;4461747;32;19985;-82
2022/08/16 11:06:23;;;;;;;;;;;;;;;37.28;21.91;99025.94;4461926;32;20002;-84
2022/08/16 11:08:53;;;;;;;;;;;;;;;36.14;23.44;99025.44;4461515;32;20385;-84
2022/08/16 11:11:40;;;;;;;;;;;;;;;35.94;23.57;99031.00;4462839;32;19981;-82
2022/08/16 11:14:28;;;;;;;;;;;;;;;35.73;24.03;99027.78;4470284;32;19997;-85
2022/08/16 11:16:55;;;;;;;;;;;;;;;36.24;22.41;99032.37;4461881;32;20424;-85
2022/08/16 11:19:36;;;;;;;;;;;;;;;36.73;22.41;99026.44;4465074;32;19992;-84
2022/08/16 11:22:25;;;;;;;;;;;;;;;37.43;21.15;99035.06;4463666;32;20000;-87
2022/08/16 11:25:13;;;;;;;;;;;;;;;37.24;21.89;99027.28;4461710;32;19981;-87
2022/08/16 11:28:02;;;;;;;;;;;;;;;37.40;22.58;99030.00;4461931;32;19980;-86
2022/08/16 11:30:29;;;;;;;;;;;;;;;36.20;22.11;99024.78;4467309;32;19984;-85
2022/08/16 11:33:05;;;;;;;;;;;;;;;36.66;21.82;99033.47;4466739;32;19984;-85
2022/08/16 11:35:32;;;;;;;;;;;;;;;37.45;20.98;99035.75;4464816;31;20005;-84
2022/08/16 11:38:21;;;;;;;;;;;;;;;37.88;20.25;99043.72;4461483;32;19997;-87
2022/08/16 11:41:08;;;;;;;;;;;;;;;37.90;21.93;99061.41;4467010;31;20036;-87
2022/08/16 11:43:36;;;;;;;;;;;;;;;37.76;22.67;99054.00;4475449;32;20046;-86
2022/08/16 11:46:04;;;;;;;;;;;;;;;37.76;21.59;99039.66;4469188;32;20850;-82
2022/08/16 11:48:53;;;;;;;;;;;;;;;37.65;20.95;99047.09;4464563;32;20050;-83
2022/08/16 11:51:20;;;;;;;;;;;;;;;37.45;21.33;99043.84;4461304;32;19980;-83
2022/08/16 11:53:47;;;;;;;;;;;;;;;37.32;21.32;99043.47;4473224;31;19988;-83
2022/08/16 11:56:15;;;;;;;;;;;;;;;37.15;21.83;99045.31;4470161;31;19989;-85
2022/08/16 11:58:54;;;;;;;;;;;;;;;37.27;22.27;99043.16;4462753;32;19985;-82
2022/08/16 12:01:23;;;;;;;;;;;;;;;37.54;21.68;99054.69;4468065;32;19973;-85
2022/08/16 12:04:10;;;;;;;;;;;;;;;37.67;21.16;99057.72;4475588;32;20321;-84
2022/08/16 12:06:39;;;;;;;;;;;;;;;37.53;22.30;99051.13;4474258;32;19996;-80
2022/08/16 12:09:15;;;;;;;;;;;;;;;37.43;22.55;99048.56;4455596;31;19984;-83
2022/08/16 12:11:43;;;;;;;;;;;;;;;37.47;22.33;99043.72;4472455;31;19984;-85
2022/08/16 12:14:13;;;;;;;;;;;;;;;37.44;22.38;99047.53;4476205;31;20409;-83
2022/08/16 12:16:42;;;;;;;;;;;;;;;37.58;22.34;99047.91;4474503;31;20078;-84
2022/08/16 12:19:21;;;;;;;;;;;;;;;37.53;22.77;99044.91;4472492;32;20127;-84
2022/08/16 12:22:00;;;;;;;;;;;;;;;37.81;22.00;99038.13;4474118;32;19968;-85
2022/08/16 12:24:31;;;;;;;;;;;;;;;37.88;22.79;99039.16;4473640;31;20000;-82
2022/08/16 12:26:58;;;;;;;;;;;;;;;37.87;21.31;99036.59;4472477;31;20067;-84
2022/08/16 12:29:25;;;;;;;;;;;;;;;37.93;22.00;99020.56;4474910;32;20345;-84
2022/08/16 12:31:55;;;;;;;;;;;;;;;38.14;22.49;99021.91;4474000;32;19973;-84
2022/08/16 12:34:30;;;;;;;;;;;;;;;38.18;22.34;99022.41;4473087;32;20005;-84
2022/08/16 12:37:01;;;;;;;;;;;;;;;37.93;22.89;99041.34;4472271;32;20376;-83
2022/08/16 12:39:30;;;;;;;;;;;;;;;37.80;22.54;99057.22;4476274;31;20003;-86
2022/08/16 12:41:57;;;;;;;;;;;;;;;37.55;22.40;99064.47;4471667;32;19988;-86
2022/08/16 12:44:27;;;;;;;;;;;;;;;37.15;21.82;99057.97;4473336;32;20033;-86
2022/08/16 12:49:42;;;;;;;;;;;;;;;36.26;23.41;99061.88;4474032;32;20084;-84
2022/08/16 12:52:11;;;;;;;;;;;;;;;35.98;23.09;99067.38;4474198;32;20017;-83
2022/08/16 12:54:58;;;;;;;;;;;;;;;35.59;23.88;99067.75;4473153;32;20015;-84
2022/08/16 12:57:25;;;;;;;;;;;;;;;35.00;26.00;99058.31;4475209;32;20314;-84
2022/08/16 13:00:05;;;;;;;;;;;;;;;35.16;24.87;99053.16;4472685;32;20303;-84
2022/08/16 13:02:32;;;;;;;;;;;;;;;34.88;25.81;99046.09;4473921;32;20036;-84
2022/08/16 13:05:02;;;;;;;;;;;;;;;34.91;25.92;99043.94;4475272;32;19996;-85
2022/08/16 13:07:32;;;;;;;;;;;;;;;35.14;24.58;99044.41;4477884;32;20005;-84
2022/08/16 13:10:13;;;;;;;;;;;;;;;34.70;26.86;99044.19;4476621;32;20409;-84
2022/08/16 13:13:00;;;;;;;;;;;;;;;35.01;25.22;99043.88;4474253;31;20365;-85
2022/08/16 13:15:29;;;;;;;;;;;;;;;34.72;25.18;99033.28;4475404;32;19984;-84
2022/08/16 13:17:57;;;;;;;;;;;;;;;34.78;24.46;99032.69;4472204;32;20827;-83
2022/08/16 13:20:27;;;;;;;;;;;;;;;34.65;24.80;99022.28;4473800;32;20316;-83
2022/08/16 13:23:05;;;;;;;;;;;;;;;34.45;25.35;99026.84;4477920;31;20053;-84
2022/08/16 13:25:33;;;;;;;;;;;;;;;34.52;25.17;99020.88;4470201;32;20004;-83